sensor_id;sensor_type;location;lat;lon;timestamp;temperature;humidity
16736;DHT22;17990;49.548;9.730;2022-08-19T00:00:48;21.40;99.90
16736;DHT22;17990;49.548;9.730;2022-08-19T00:03:16;21.40;99.90
16736;DHT22;17990;49.548;9.730;2022-08-19T00:05:44;21.40;99.90
16736;DHT22;17990;49.548;9.730;2022-08-19T00:08:11;21.40;99.90
16736;DHT22;17990;49.548;9.730;2022-08-19T00:10:38;21.40;99.90
16736;DHT22;17990;49.548;9.730;2022-08-19T00:13:04;21.30;99.90
16736;DHT22;17990;49.548;9.730;2022-08-19T00:15:31;21.30;99.90
16736;DHT22;17990;49.548;9.730;2022-08-19T00:17:58;21.20;99.90
16736;DHT22;17990;49.548;9.730;2022-08-19T00:20:25;21.20;99.90
16736;DHT22;17990;49.548;9.730;2022-08-19T00:22:53;21.10;99.90
16736;DHT22;17990;49.548;9.730;2022-08-19T00:25:21;21.10;99.90
16736;DHT22;17990;49.548;9.730;2022-08-19T00:27:47;21.00;99.90
16736;DHT22;17990;49.548;9.730;2022-08-19T00:30:14;21.00;99.90
16736;DHT22;17990;49.548;9.730;2022-08-19T00:32:41;20.90;99.90
16736;DHT22;17990;49.548;9.730;2022-08-19T00:35:08;20.80;99.90
16736;DHT22;17990;49.548;9.730;2022-08-19T00:37:36;20.70;99.90
16736;DHT22;17990;49.548;9.730;2022-08-19T00:40:07;20.70;99.90
16736;DHT22;17990;49.548;9.730;2022-08-19T00:42:34;20.60;99.90
16736;DHT22;17990;49.548;9.730;2022-08-19T00:45:02;20.60;99.90
16736;DHT22;17990;49.548;9.730;2022-08-19T00:47:29;20.50;99.90
16736;DHT22;17990;49.548;9.730;2022-08-19T00:49:57;20.40;99.90
16736;DHT22;17990;49.548;9.730;2022-08-19T00:52:27;20.40;99.90
16736;DHT22;17990;49.548;9.730;2022-08-19T00:54:56;20.30;99.90
16736;DHT22;17990;49.548;9.730;2022-08-19T00:57:28;20.30;99.90
16736;DHT22;17990;49.548;9.730;2022-08-19T00:59:56;20.30;99.90
16736;DHT22;17990;49.548;9.730;2022-08-19T01:02:25;20.30;99.90
16736;DHT22;17990;49.548;9.730;2022-08-19T01:04:52;20.20;99.90
16736;DHT22;17990;49.548;9.730;2022-08-19T01:07:19;20.20;99.90
16736;DHT22;17990;49.548;9.730;2022-08-19T01:09:46;20.20;99.90
16736;DHT22;17990;49.548;9.730;2022-08-19T01:12:13;20.30;99.90
16736;DHT22;17990;49.548;9.730;2022-08-19T01:14:42;20.20;99.90
16736;DHT22;17990;49.548;9.730;2022-08-19T01:17:09;20.20;99.90
16736;DHT22;17990;49.548;9.730;2022-08-19T01:19:39;20.20;99.90
16736;DHT22;17990;49.548;9.730;2022-08-19T01:22:12;20.10;99.90
16736;DHT22;17990;49.548;9.730;2022-08-19T01:24:42;20.10;99.90
16736;DHT22;17990;49.548;9.730;2022-08-19T01:27:08;20.10;99.90
16736;DHT22;17990;49.548;9.730;2022-08-19T01:29:37;20.10;99.90
16736;DHT22;17990;49.548;9.730;2022-08-19T01:32:05;20.00;99.90
16736;DHT22;17990;49.548;9.730;2022-08-19T01:34:32;20.00;99.90
16736;DHT22;17990;49.548;9.730;2022-08-19T01:37:00;19.90;99.90
16736;DHT22;17990;49.548;9.730;2022-08-19T01:39:28;19.80;99.90
16736;DHT22;17990;49.548;9.730;2022-08-19T01:41:56;19.80;99.90
16736;DHT22;17990;49.548;9.730;2022-08-19T01:44:22;19.80;99.90
16736;DHT22;17990;49.548;9.730;2022-08-19T01:46:51;19.90;99.90
16736;DHT22;17990;49.548;9.730;2022-08-19T01:49:20;19.90;99.90
16736;DHT22;17990;49.548;9.730;2022-08-19T01:51:47;19.90;99.90
16736;DHT22;17990;49.548;9.730;2022-08-19T01:54:16;19.90;99.90
16736;DHT22;17990;49.548;9.730;2022-08-19T01:56:43;19.80;99.90
16736;DHT22;17990;49.548;9.730;2022-08-19T01:59:14;19.80;99.90
16736;DHT22;17990;49.548;9.730;2022-08-19T02:01:41;19.70;99.90
16736;DHT22;17990;49.548;9.730;2022-08-19T02:04:08;19.80;99.90
16736;DHT22;17990;49.548;9.730;2022-08-19T02:06:35;19.80;99.90
16736;DHT22;17990;49.548;9.730;2022-08-19T02:09:03;19.70;99.90
16736;DHT22;17990;49.548;9.730;2022-08-19T02:11:32;19.70;99.90
16736;DHT22;17990;49.548;9.730;2022-08-19T02:14:02;19.70;99.90
16736;DHT22;17990;49.548;9.730;2022-08-19T02:16:30;19.70;99.90
16736;DHT22;17990;49.548;9.730;2022-08-19T02:18:58;19.70;99.90
16736;DHT22;17990;49.548;9.730;2022-08-19T02:21:26;19.60;99.90
16736;DHT22;17990;49.548;9.730;2022-08-19T02:23:53;19.60;99.90
16736;DHT22;17990;49.548;9.730;2022-08-19T02:26:21;19.70;99.90
16736;DHT22;17990;49.548;9.730;2022-08-19T02:28:48;19.70;99.90
16736;DHT22;17990;49.548;9.730;2022-08-19T02:31:18;19.70;99.90
16736;DHT22;17990;49.548;9.730;2022-08-19T02:33:47;19.80;99.90
16736;DHT22;17990;49.548;9.730;2022-08-19T02:36:16;19.80;99.90
16736;DHT22;17990;49.548;9.730;2022-08-19T02:38:43;19.70;99.90
16736;DHT22;17990;49.548;9.730;2022-08-19T02:41:16;19.70;99.90
16736;DHT22;17990;49.548;9.730;2022-08-19T02:43:43;19.60;99.90
16736;DHT22;17990;49.548;9.730;2022-08-19T02:46:15;19.50;99.90
16736;DHT22;17990;49.548;9.730;2022-08-19T02:48:47;19.50;99.90
16736;DHT22;17990;49.548;9.730;2022-08-19T02:51:20;19.50;99.90
16736;DHT22;17990;49.548;9.730;2022-08-19T02:53:47;19.50;99.90
16736;DHT22;17990;49.548;9.730;2022-08-19T02:56:14;19.50;99.90
16736;DHT22;17990;49.548;9.730;2022-08-19T02:58:41;19.60;99.90
16736;DHT22;17990;49.548;9.730;2022-08-19T03:01:09;19.60;99.90
16736;DHT22;17990;49.548;9.730;2022-08-19T03:03:37;19.60;99.90
16736;DHT22;17990;49.548;9.730;2022-08-19T03:06:08;19.60;99.90
16736;DHT22;17990;49.548;9.730;2022-08-19T03:08:36;19.60;99.90
16736;DHT22;17990;49.548;9.730;2022-08-19T03:11:03;19.60;99.90
16736;DHT22;17990;49.548;9.730;2022-08-19T03:13:31;19.60;99.90
16736;DHT22;17990;49.548;9.730;2022-08-19T03:15:58;19.60;99.90
16736;DHT22;17990;49.548;9.730;2022-08-19T03:18:24;19.60;99.90
16736;DHT22;17990;49.548;9.730;2022-08-19T03:20:52;19.60;99.90
16736;DHT22;17990;49.548;9.730;2022-08-19T03:23:22;19.60;99.90
16736;DHT22;17990;49.548;9.730;2022-08-19T03:25:51;19.60;99.90
16736;DHT22;17990;49.548;9.730;2022-08-19T03:28:19;19.50;99.90
16736;DHT22;17990;49.548;9.730;2022-08-19T03:30:56;19.50;99.90
16736;DHT22;17990;49.548;9.730;2022-08-19T03:33:25;19.50;99.90
16736;DHT22;17990;49.548;9.730;2022-08-19T03:36:03;19.50;99.90
16736;DHT22;17990;49.548;9.730;2022-08-19T03:38:32;19.50;99.90
16736;DHT22;17990;49.548;9.730;2022-08-19T03:41:03;19.50;99.90
16736;DHT22;17990;49.548;9.730;2022-08-19T03:43:32;19.60;99.90
16736;DHT22;17990;49.548;9.730;2022-08-19T03:46:01;19.50;99.90
16736;DHT22;17990;49.548;9.730;2022-08-19T03:48:30;19.50;99.90
16736;DHT22;17990;49.548;9.730;2022-08-19T03:50:57;19.50;99.90
16736;DHT22;17990;49.548;9.730;2022-08-19T03:53:25;19.50;99.90
16736;DHT22;17990;49.548;9.730;2022-08-19T03:55:54;19.50;99.90
16736;DHT22;17990;49.548;9.730;2022-08-19T03:58:21;19.50;99.90
16736;DHT22;17990;49.548;9.730;2022-08-19T04:00:48;19.40;99.90
16736;DHT22;17990;49.548;9.730;2022-08-19T04:03:15;19.40;99.90
16736;DHT22;17990;49.548;9.730;2022-08-19T04:05:44;19.30;99.90
16736;DHT22;17990;49.548;9.730;2022-08-19T04:08:11;19.30;99.90
16736;DHT22;17990;49.548;9.730;2022-08-19T04:10:38;19.30;99.90
16736;DHT22;17990;49.548;9.730;2022-08-19T04:13:07;19.20;99.90
16736;DHT22;17990;49.548;9.730;2022-08-19T04:15:39;19.20;99.90
16736;DHT22;17990;49.548;9.730;2022-08-19T04:18:07;19.30;99.90
16736;DHT22;17990;49.548;9.730;2022-08-19T04:20:39;19.30;99.90
16736;DHT22;17990;49.548;9.730;2022-08-19T04:23:06;19.30;99.90
16736;DHT22;17990;49.548;9.730;2022-08-19T04:25:36;19.30;99.90
16736;DHT22;17990;49.548;9.730;2022-08-19T04:28:03;19.30;99.90
16736;DHT22;17990;49.548;9.730;2022-08-19T04:30:37;19.30;99.90
16736;DHT22;17990;49.548;9.730;2022-08-19T04:35:35;19.40;99.90
16736;DHT22;17990;49.548;9.730;2022-08-19T04:38:02;19.40;99.90
16736;DHT22;17990;49.548;9.730;2022-08-19T04:40:29;19.40;99.90
16736;DHT22;17990;49.548;9.730;2022-08-19T04:43:14;19.50;99.90
16736;DHT22;17990;49.548;9.730;2022-08-19T04:45:42;19.50;99.90
16736;DHT22;17990;49.548;9.730;2022-08-19T04:48:09;19.60;99.90
16736;DHT22;17990;49.548;9.730;2022-08-19T04:50:39;19.60;99.90
16736;DHT22;17990;49.548;9.730;2022-08-19T04:53:07;19.70;99.90
16736;DHT22;17990;49.548;9.730;2022-08-19T04:55:33;19.70;99.90
16736;DHT22;17990;49.548;9.730;2022-08-19T04:58:01;19.70;99.90
16736;DHT22;17990;49.548;9.730;2022-08-19T05:00:28;19.80;99.90
16736;DHT22;17990;49.548;9.730;2022-08-19T05:02:56;19.90;99.90
16736;DHT22;17990;49.548;9.730;2022-08-19T05:05:23;20.00;99.90
16736;DHT22;17990;49.548;9.730;2022-08-19T05:07:49;20.00;99.90
16736;DHT22;17990;49.548;9.730;2022-08-19T05:10:16;20.10;99.90
16736;DHT22;17990;49.548;9.730;2022-08-19T05:12:43;20.10;99.90
16736;DHT22;17990;49.548;9.730;2022-08-19T05:15:10;20.10;99.90
16736;DHT22;17990;49.548;9.730;2022-08-19T05:17:37;20.20;99.90
16736;DHT22;17990;49.548;9.730;2022-08-19T05:20:25;20.20;99.90
16736;DHT22;17990;49.548;9.730;2022-08-19T05:23:10;20.30;99.90
16736;DHT22;17990;49.548;9.730;2022-08-19T05:25:40;20.40;99.90
16736;DHT22;17990;49.548;9.730;2022-08-19T05:28:06;20.40;99.90
16736;DHT22;17990;49.548;9.730;2022-08-19T05:30:33;20.40;99.90
16736;DHT22;17990;49.548;9.730;2022-08-19T05:33:00;20.40;99.90
16736;DHT22;17990;49.548;9.730;2022-08-19T05:35:28;20.50;99.90
16736;DHT22;17990;49.548;9.730;2022-08-19T05:37:55;20.50;99.90
16736;DHT22;17990;49.548;9.730;2022-08-19T05:40:22;20.50;99.90
16736;DHT22;17990;49.548;9.730;2022-08-19T05:42:49;20.50;99.90
16736;DHT22;17990;49.548;9.730;2022-08-19T05:45:16;20.50;99.90
16736;DHT22;17990;49.548;9.730;2022-08-19T05:47:42;20.50;99.90
16736;DHT22;17990;49.548;9.730;2022-08-19T05:50:10;20.50;99.90
16736;DHT22;17990;49.548;9.730;2022-08-19T05:52:39;20.50;99.90
16736;DHT22;17990;49.548;9.730;2022-08-19T05:55:06;20.60;99.90
16736;DHT22;17990;49.548;9.730;2022-08-19T05:57:33;20.60;99.90
16736;DHT22;17990;49.548;9.730;2022-08-19T06:00:00;20.70;99.90
16736;DHT22;17990;49.548;9.730;2022-08-19T06:02:33;20.70;99.90
16736;DHT22;17990;49.548;9.730;2022-08-19T06:05:00;20.80;99.90
16736;DHT22;17990;49.548;9.730;2022-08-19T06:07:28;20.90;99.90
16736;DHT22;17990;49.548;9.730;2022-08-19T06:09:56;20.90;99.90
16736;DHT22;17990;49.548;9.730;2022-08-19T06:12:22;21.00;99.90
16736;DHT22;17990;49.548;9.730;2022-08-19T06:14:56;21.00;99.90
16736;DHT22;17990;49.548;9.730;2022-08-19T06:17:22;21.10;99.90
16736;DHT22;17990;49.548;9.730;2022-08-19T06:19:51;21.10;99.90
16736;DHT22;17990;49.548;9.730;2022-08-19T06:22:18;21.20;99.90
16736;DHT22;17990;49.548;9.730;2022-08-19T06:24:44;21.20;99.90
16736;DHT22;17990;49.548;9.730;2022-08-19T06:27:12;21.20;99.90
16736;DHT22;17990;49.548;9.730;2022-08-19T06:29:39;21.30;99.90
16736;DHT22;17990;49.548;9.730;2022-08-19T06:32:08;21.40;99.90
16736;DHT22;17990;49.548;9.730;2022-08-19T06:34:35;21.40;99.90
16736;DHT22;17990;49.548;9.730;2022-08-19T06:37:02;21.40;99.90
16736;DHT22;17990;49.548;9.730;2022-08-19T06:39:31;21.50;99.90
16736;DHT22;17990;49.548;9.730;2022-08-19T06:42:01;21.50;99.90
16736;DHT22;17990;49.548;9.730;2022-08-19T06:44:32;21.60;99.90
16736;DHT22;17990;49.548;9.730;2022-08-19T06:47:01;21.60;99.90
16736;DHT22;17990;49.548;9.730;2022-08-19T06:49:28;21.70;99.90
16736;DHT22;17990;49.548;9.730;2022-08-19T06:51:56;21.80;99.90
16736;DHT22;17990;49.548;9.730;2022-08-19T06:54:24;22.00;99.90
16736;DHT22;17990;49.548;9.730;2022-08-19T06:56:51;22.10;99.90
16736;DHT22;17990;49.548;9.730;2022-08-19T06:59:21;22.10;99.90
16736;DHT22;17990;49.548;9.730;2022-08-19T07:01:56;22.10;99.90
16736;DHT22;17990;49.548;9.730;2022-08-19T07:04:25;22.20;99.90
16736;DHT22;17990;49.548;9.730;2022-08-19T07:06:58;22.30;99.90
16736;DHT22;17990;49.548;9.730;2022-08-19T07:09:25;22.40;99.90
16736;DHT22;17990;49.548;9.730;2022-08-19T07:11:53;22.50;99.90
16736;DHT22;17990;49.548;9.730;2022-08-19T07:14:21;22.50;99.90
16736;DHT22;17990;49.548;9.730;2022-08-19T07:16:52;22.60;99.90
16736;DHT22;17990;49.548;9.730;2022-08-19T07:19:23;22.60;99.90
16736;DHT22;17990;49.548;9.730;2022-08-19T07:21:50;22.60;99.90
16736;DHT22;17990;49.548;9.730;2022-08-19T07:24:19;22.80;99.90
16736;DHT22;17990;49.548;9.730;2022-08-19T07:26:46;22.80;99.90
16736;DHT22;17990;49.548;9.730;2022-08-19T07:29:13;22.80;99.90
16736;DHT22;17990;49.548;9.730;2022-08-19T07:31:40;22.80;99.90
16736;DHT22;17990;49.548;9.730;2022-08-19T07:34:08;22.80;99.90
16736;DHT22;17990;49.548;9.730;2022-08-19T07:36:39;22.90;99.90
16736;DHT22;17990;49.548;9.730;2022-08-19T07:39:11;23.00;99.90
16736;DHT22;17990;49.548;9.730;2022-08-19T07:41:38;23.00;99.90
16736;DHT22;17990;49.548;9.730;2022-08-19T07:44:06;23.00;99.90
16736;DHT22;17990;49.548;9.730;2022-08-19T07:46:35;22.90;99.90
16736;DHT22;17990;49.548;9.730;2022-08-19T07:49:03;22.80;99.90
16736;DHT22;17990;49.548;9.730;2022-08-19T07:51:31;22.80;99.90
16736;DHT22;17990;49.548;9.730;2022-08-19T07:53:59;22.90;99.90
16736;DHT22;17990;49.548;9.730;2022-08-19T07:56:27;22.90;99.90
16736;DHT22;17990;49.548;9.730;2022-08-19T07:58:53;23.00;99.90
16736;DHT22;17990;49.548;9.730;2022-08-19T08:01:24;23.20;99.90
16736;DHT22;17990;49.548;9.730;2022-08-19T08:03:55;23.50;99.90
16736;DHT22;17990;49.548;9.730;2022-08-19T08:06:40;23.70;99.90
16736;DHT22;17990;49.548;9.730;2022-08-19T08:09:31;24.00;99.90
16736;DHT22;17990;49.548;9.730;2022-08-19T08:12:02;24.10;99.90
16736;DHT22;17990;49.548;9.730;2022-08-19T08:14:32;24.10;99.90
16736;DHT22;17990;49.548;9.730;2022-08-19T08:17:01;24.10;99.90
16736;DHT22;17990;49.548;9.730;2022-08-19T08:19:28;24.00;99.90
16736;DHT22;17990;49.548;9.730;2022-08-19T08:21:57;23.90;99.90
16736;DHT22;17990;49.548;9.730;2022-08-19T08:24:26;23.80;99.90
16736;DHT22;17990;49.548;9.730;2022-08-19T08:26:53;23.60;99.90
16736;DHT22;17990;49.548;9.730;2022-08-19T08:29:20;23.40;99.90
16736;DHT22;17990;49.548;9.730;2022-08-19T08:31:47;23.50;99.90
16736;DHT22;17990;49.548;9.730;2022-08-19T08:34:14;23.60;99.90
16736;DHT22;17990;49.548;9.730;2022-08-19T08:36:43;23.80;99.90
16736;DHT22;17990;49.548;9.730;2022-08-19T08:39:13;24.00;99.90
16736;DHT22;17990;49.548;9.730;2022-08-19T08:41:47;24.10;99.90
16736;DHT22;17990;49.548;9.730;2022-08-19T08:44:22;24.20;99.90
16736;DHT22;17990;49.548;9.730;2022-08-19T08:46:51;24.20;99.90
16736;DHT22;17990;49.548;9.730;2022-08-19T08:49:33;24.30;99.90
16736;DHT22;17990;49.548;9.730;2022-08-19T08:52:05;24.30;99.90
16736;DHT22;17990;49.548;9.730;2022-08-19T08:54:34;24.30;99.90
16736;DHT22;17990;49.548;9.730;2022-08-19T08:57:09;24.40;99.90
16736;DHT22;17990;49.548;9.730;2022-08-19T08:59:39;24.60;99.90
16736;DHT22;17990;49.548;9.730;2022-08-19T09:02:07;24.70;99.90
16736;DHT22;17990;49.548;9.730;2022-08-19T09:04:34;24.80;99.90
16736;DHT22;17990;49.548;9.730;2022-08-19T09:07:15;24.70;99.90
16736;DHT22;17990;49.548;9.730;2022-08-19T09:09:46;24.70;99.90
16736;DHT22;17990;49.548;9.730;2022-08-19T09:12:20;24.90;99.90
16736;DHT22;17990;49.548;9.730;2022-08-19T09:14:53;24.90;99.90
16736;DHT22;17990;49.548;9.730;2022-08-19T09:17:24;24.90;99.90
16736;DHT22;17990;49.548;9.730;2022-08-19T09:19:55;25.10;99.90
16736;DHT22;17990;49.548;9.730;2022-08-19T09:22:22;25.20;99.90
16736;DHT22;17990;49.548;9.730;2022-08-19T09:24:50;25.30;99.90
16736;DHT22;17990;49.548;9.730;2022-08-19T09:27:20;25.30;99.90
16736;DHT22;17990;49.548;9.730;2022-08-19T09:29:49;25.20;99.90
16736;DHT22;17990;49.548;9.730;2022-08-19T09:32:16;25.30;99.90
16736;DHT22;17990;49.548;9.730;2022-08-19T09:34:43;25.40;99.90
16736;DHT22;17990;49.548;9.730;2022-08-19T09:37:10;25.40;99.90
16736;DHT22;17990;49.548;9.730;2022-08-19T09:39:37;25.60;99.90
16736;DHT22;17990;49.548;9.730;2022-08-19T09:42:04;25.80;99.90
16736;DHT22;17990;49.548;9.730;2022-08-19T09:44:36;25.90;99.90
16736;DHT22;17990;49.548;9.730;2022-08-19T09:47:03;25.90;99.90
16736;DHT22;17990;49.548;9.730;2022-08-19T09:49:30;25.90;99.90
16736;DHT22;17990;49.548;9.730;2022-08-19T09:51:57;25.90;99.90
16736;DHT22;17990;49.548;9.730;2022-08-19T09:54:24;25.90;99.90
16736;DHT22;17990;49.548;9.730;2022-08-19T09:56:52;25.90;99.90
16736;DHT22;17990;49.548;9.730;2022-08-19T09:59:19;25.90;99.90
16736;DHT22;17990;49.548;9.730;2022-08-19T10:01:47;25.90;99.90
16736;DHT22;17990;49.548;9.730;2022-08-19T10:04:13;26.20;99.90
16736;DHT22;17990;49.548;9.730;2022-08-19T10:06:40;26.40;99.90
16736;DHT22;17990;49.548;9.730;2022-08-19T10:09:08;26.50;99.90
16736;DHT22;17990;49.548;9.730;2022-08-19T10:11:36;26.40;99.90
16736;DHT22;17990;49.548;9.730;2022-08-19T10:14:06;26.30;99.90
16736;DHT22;17990;49.548;9.730;2022-08-19T10:16:33;26.00;99.90
16736;DHT22;17990;49.548;9.730;2022-08-19T10:19:01;25.70;99.90
16736;DHT22;17990;49.548;9.730;2022-08-19T10:21:32;25.50;99.90
16736;DHT22;17990;49.548;9.730;2022-08-19T10:24:02;25.10;99.90
16736;DHT22;17990;49.548;9.730;2022-08-19T10:26:33;24.90;99.90
16736;DHT22;17990;49.548;9.730;2022-08-19T10:29:02;24.90;99.90
16736;DHT22;17990;49.548;9.730;2022-08-19T10:31:32;24.90;99.90
16736;DHT22;17990;49.548;9.730;2022-08-19T10:34:01;25.10;99.90
16736;DHT22;17990;49.548;9.730;2022-08-19T10:36:29;25.30;99.90
16736;DHT22;17990;49.548;9.730;2022-08-19T10:38:58;25.50;99.90
16736;DHT22;17990;49.548;9.730;2022-08-19T10:41:28;25.90;99.90
16736;DHT22;17990;49.548;9.730;2022-08-19T10:43:59;26.20;99.90
16736;DHT22;17990;49.548;9.730;2022-08-19T10:46:27;26.30;99.90
16736;DHT22;17990;49.548;9.730;2022-08-19T10:48:54;26.10;99.90
16736;DHT22;17990;49.548;9.730;2022-08-19T10:51:22;26.00;99.90
16736;DHT22;17990;49.548;9.730;2022-08-19T10:54:07;26.00;99.90
16736;DHT22;17990;49.548;9.730;2022-08-19T10:56:34;26.00;99.90
16736;DHT22;17990;49.548;9.730;2022-08-19T10:59:19;26.10;99.90
16736;DHT22;17990;49.548;9.730;2022-08-19T11:01:47;26.10;99.90
16736;DHT22;17990;49.548;9.730;2022-08-19T11:04:15;25.90;99.90
16736;DHT22;17990;49.548;9.730;2022-08-19T11:06:45;25.90;99.90
16736;DHT22;17990;49.548;9.730;2022-08-19T11:09:13;26.00;99.90
16736;DHT22;17990;49.548;9.730;2022-08-19T11:11:41;26.30;99.90
16736;DHT22;17990;49.548;9.730;2022-08-19T11:14:09;26.60;99.30
16736;DHT22;17990;49.548;9.730;2022-08-19T11:16:36;27.00;98.30
16736;DHT22;17990;49.548;9.730;2022-08-19T11:19:05;27.40;97.90
16736;DHT22;17990;49.548;9.730;2022-08-19T11:21:35;27.80;97.20
16736;DHT22;17990;49.548;9.730;2022-08-19T11:24:06;27.80;96.60
16736;DHT22;17990;49.548;9.730;2022-08-19T11:26:34;27.90;95.70
16736;DHT22;17990;49.548;9.730;2022-08-19T11:29:01;28.20;95.60
16736;DHT22;17990;49.548;9.730;2022-08-19T11:31:30;28.30;95.40
16736;DHT22;17990;49.548;9.730;2022-08-19T11:33:58;28.70;94.90
16736;DHT22;17990;49.548;9.730;2022-08-19T11:36:27;28.70;93.70
16736;DHT22;17990;49.548;9.730;2022-08-19T11:38:55;28.50;94.80
16736;DHT22;17990;49.548;9.730;2022-08-19T11:41:23;28.40;95.50
16736;DHT22;17990;49.548;9.730;2022-08-19T11:43:51;28.40;95.50
16736;DHT22;17990;49.548;9.730;2022-08-19T11:46:22;28.40;94.10
16736;DHT22;17990;49.548;9.730;2022-08-19T11:48:49;28.30;95.30
16736;DHT22;17990;49.548;9.730;2022-08-19T11:51:18;28.30;95.20
16736;DHT22;17990;49.548;9.730;2022-08-19T11:53:45;28.20;95.20
16736;DHT22;17990;49.548;9.730;2022-08-19T11:56:12;28.30;94.90
16736;DHT22;17990;49.548;9.730;2022-08-19T11:58:40;28.30;94.30
16736;DHT22;17990;49.548;9.730;2022-08-19T12:01:08;28.30;93.70
16736;DHT22;17990;49.548;9.730;2022-08-19T12:03:37;28.30;93.10
16736;DHT22;17990;49.548;9.730;2022-08-19T12:06:05;28.30;92.50
16736;DHT22;17990;49.548;9.730;2022-08-19T12:08:32;28.30;92.30
16736;DHT22;17990;49.548;9.730;2022-08-19T12:10:58;28.30;92.20
16736;DHT22;17990;49.548;9.730;2022-08-19T12:13:27;28.40;91.90
16736;DHT22;17990;49.548;9.730;2022-08-19T12:15:55;28.50;91.80
16736;DHT22;17990;49.548;9.730;2022-08-19T12:18:22;28.40;91.60
16736;DHT22;17990;49.548;9.730;2022-08-19T12:20:51;28.40;91.60
16736;DHT22;17990;49.548;9.730;2022-08-19T12:23:18;28.50;91.20
16736;DHT22;17990;49.548;9.730;2022-08-19T12:25:47;28.40;90.80
16736;DHT22;17990;49.548;9.730;2022-08-19T12:28:18;28.30;90.60
16736;DHT22;17990;49.548;9.730;2022-08-19T12:30:45;28.30;90.90
16736;DHT22;17990;49.548;9.730;2022-08-19T12:33:14;28.30;90.60
16736;DHT22;17990;49.548;9.730;2022-08-19T12:35:41;28.20;90.60
16736;DHT22;17990;49.548;9.730;2022-08-19T12:38:07;28.20;90.70
16736;DHT22;17990;49.548;9.730;2022-08-19T12:40:34;28.10;90.80
16736;DHT22;17990;49.548;9.730;2022-08-19T12:43:01;28.10;91.00
16736;DHT22;17990;49.548;9.730;2022-08-19T12:45:28;28.10;90.90
16736;DHT22;17990;49.548;9.730;2022-08-19T12:47:55;27.90;90.60
16736;DHT22;17990;49.548;9.730;2022-08-19T12:50:23;27.80;90.50
16736;DHT22;17990;49.548;9.730;2022-08-19T12:52:50;28.00;90.40
16736;DHT22;17990;49.548;9.730;2022-08-19T12:55:17;28.20;90.00
16736;DHT22;17990;49.548;9.730;2022-08-19T12:57:44;28.20;89.10
16736;DHT22;17990;49.548;9.730;2022-08-19T13:00:14;28.40;88.50
16736;DHT22;17990;49.548;9.730;2022-08-19T13:02:44;28.30;88.70
16736;DHT22;17990;49.548;9.730;2022-08-19T13:05:13;28.30;89.00
16736;DHT22;17990;49.548;9.730;2022-08-19T13:07:42;28.40;88.90
16736;DHT22;17990;49.548;9.730;2022-08-19T13:10:12;28.20;87.90
16736;DHT22;17990;49.548;9.730;2022-08-19T13:12:41;27.90;88.70
16736;DHT22;17990;49.548;9.730;2022-08-19T13:15:09;27.90;88.80
16736;DHT22;17990;49.548;9.730;2022-08-19T13:17:37;28.10;88.90
16736;DHT22;17990;49.548;9.730;2022-08-19T13:20:04;28.30;88.70
16736;DHT22;17990;49.548;9.730;2022-08-19T13:22:33;28.40;88.40
16736;DHT22;17990;49.548;9.730;2022-08-19T13:25:02;28.60;88.10
16736;DHT22;17990;49.548;9.730;2022-08-19T13:27:29;28.90;85.60
16736;DHT22;17990;49.548;9.730;2022-08-19T13:29:56;29.00;84.90
16736;DHT22;17990;49.548;9.730;2022-08-19T13:32:40;28.70;84.90
16736;DHT22;17990;49.548;9.730;2022-08-19T13:35:24;28.50;85.50
16736;DHT22;17990;49.548;9.730;2022-08-19T13:37:51;28.40;86.00
16736;DHT22;17990;49.548;9.730;2022-08-19T13:40:22;28.40;85.80
16736;DHT22;17990;49.548;9.730;2022-08-19T13:42:53;28.80;84.70
16736;DHT22;17990;49.548;9.730;2022-08-19T13:45:23;28.80;84.20
16736;DHT22;17990;49.548;9.730;2022-08-19T13:47:53;28.80;84.50
16736;DHT22;17990;49.548;9.730;2022-08-19T13:50:23;28.90;84.30
16736;DHT22;17990;49.548;9.730;2022-08-19T13:52:51;28.80;84.00
16736;DHT22;17990;49.548;9.730;2022-08-19T13:55:20;28.90;84.20
16736;DHT22;17990;49.548;9.730;2022-08-19T13:57:50;29.00;83.70
16736;DHT22;17990;49.548;9.730;2022-08-19T14:00:18;29.30;83.40
16736;DHT22;17990;49.548;9.730;2022-08-19T14:02:46;29.50;82.70
16736;DHT22;17990;49.548;9.730;2022-08-19T14:05:15;29.70;81.60
16736;DHT22;17990;49.548;9.730;2022-08-19T14:07:42;29.30;82.30
16736;DHT22;17990;49.548;9.730;2022-08-19T14:10:10;29.40;81.60
16736;DHT22;17990;49.548;9.730;2022-08-19T14:12:39;29.40;81.80
16736;DHT22;17990;49.548;9.730;2022-08-19T14:15:08;29.10;83.10
16736;DHT22;17990;49.548;9.730;2022-08-19T14:17:37;29.00;82.70
16736;DHT22;17990;49.548;9.730;2022-08-19T14:20:07;29.00;82.50
16736;DHT22;17990;49.548;9.730;2022-08-19T14:22:34;28.90;82.80
16736;DHT22;17990;49.548;9.730;2022-08-19T14:25:01;28.80;83.30
16736;DHT22;17990;49.548;9.730;2022-08-19T14:27:28;28.60;84.20
16736;DHT22;17990;49.548;9.730;2022-08-19T14:29:56;28.40;83.80
16736;DHT22;17990;49.548;9.730;2022-08-19T14:32:23;28.30;84.00
16736;DHT22;17990;49.548;9.730;2022-08-19T14:34:50;28.30;84.20
16736;DHT22;17990;49.548;9.730;2022-08-19T14:37:16;28.50;83.80
16736;DHT22;17990;49.548;9.730;2022-08-19T14:39:43;28.50;83.80
16736;DHT22;17990;49.548;9.730;2022-08-19T14:42:11;28.70;83.40
16736;DHT22;17990;49.548;9.730;2022-08-19T14:44:40;28.50;83.90
16736;DHT22;17990;49.548;9.730;2022-08-19T14:47:09;28.10;84.80
16736;DHT22;17990;49.548;9.730;2022-08-19T14:49:36;28.10;84.40
16736;DHT22;17990;49.548;9.730;2022-08-19T14:52:03;28.00;85.30
16736;DHT22;17990;49.548;9.730;2022-08-19T14:54:30;27.70;86.00
16736;DHT22;17990;49.548;9.730;2022-08-19T14:56:57;27.70;85.80
16736;DHT22;17990;49.548;9.730;2022-08-19T14:59:23;27.80;85.00
16736;DHT22;17990;49.548;9.730;2022-08-19T15:01:50;27.70;85.20
16736;DHT22;17990;49.548;9.730;2022-08-19T15:04:18;27.60;85.40
16736;DHT22;17990;49.548;9.730;2022-08-19T15:06:45;27.80;85.30
16736;DHT22;17990;49.548;9.730;2022-08-19T15:09:12;27.90;84.70
16736;DHT22;17990;49.548;9.730;2022-08-19T15:11:38;27.90;84.50
16736;DHT22;17990;49.548;9.730;2022-08-19T15:14:05;27.90;84.90
16736;DHT22;17990;49.548;9.730;2022-08-19T15:16:32;27.70;85.30
16736;DHT22;17990;49.548;9.730;2022-08-19T15:18:59;27.40;86.30
16736;DHT22;17990;49.548;9.730;2022-08-19T15:21:28;27.30;86.10
16736;DHT22;17990;49.548;9.730;2022-08-19T15:23:56;27.10;86.30
16736;DHT22;17990;49.548;9.730;2022-08-19T15:26:24;26.80;87.00
16736;DHT22;17990;49.548;9.730;2022-08-19T15:28:51;26.50;87.80
16736;DHT22;17990;49.548;9.730;2022-08-19T15:31:20;26.40;88.40
16736;DHT22;17990;49.548;9.730;2022-08-19T15:33:47;26.30;88.50
16736;DHT22;17990;49.548;9.730;2022-08-19T15:36:15;26.30;88.80
16736;DHT22;17990;49.548;9.730;2022-08-19T15:38:43;26.30;88.80
16736;DHT22;17990;49.548;9.730;2022-08-19T15:41:16;26.30;89.60